logo
Rechercher aéroport 
image banner adimage banner adimage banner ad
image banner ad

OITL - Ardabil / Secondary International Aerodrome

Situé à Ardabil, Iran, Islamic Republic of

ICAO - OITL, IATA - ADU

Données fournies par Airmate  

Information générale

Coordonnées: N38°19'36" E48°25'27"
Élévation : 4319 feet MSL.
 
Évalué:
Voir évaluations:
[VIEW]
Voir autres Aéroports à Ardabil Province

Données opérationnelles

Special qualification required
Heure actuelle UTC:
Heure actuelle locale:
Météo
TAF: TAF OITL 172015Z 1721/1806 09010KT 4000 BR SCT035 TEMPO 1721/1801 0400 FG BKN030 BECMG 1803/1805 7000 FEW035CB SCT040 SCT090
Voir NOTAMs / SUP AIP / TFR affectant cet aéroport [VIEW]
Fréquences de communication: [VIEW]

Pistes:

Identifiant RWYQFULongueur (ft)Largeur (ft)SurfaceLDA (ft)
0775°8202148UNK
25255°8202148UNK
15150°10820148PEM
33330°10820148PEM

Coordonnées de l'aéroport

Adresse: Ardabil Iran, Islamic Republic of

Vue satellite de OITL